Skelton, Minnesota
Current Conditions -  °F | °C
As of 12:34 PM on Monday 26 Jan 2015 (Local Time) from KMZH Reporting Station
Overcast Overcast  
Wind Chill: 32°   Ceiling: 1500
Heat Index: 32°   Visibility: 7mi
Dew Point: 28°   Wind: 0mph
Humidity: 87%   Direction: NA
Pressure: 29.65"   Gusts: NA
Location:  46.5379°N, 92.621°W
Report Text: KMZH 261834Z AUTO 00000KT 7SM OVC015 00/M02 A2965 RMK AO2
Loading
Personal Weather Stations






























Interactive Weather Map New forecast layout! Learn more

10-Day Weather Forecast

Advertisements
Track Severe Weather on mobile